Time,TemperatureF,DewpointF,PressureIn,WindDirection,WindDirectionDegrees,WindSpeedMPH,WindSpeedGustMPH,Humidity,HourlyPrecipIn,Conditions,Clouds,dailyrainin,SolarRadiationWatts/m^2,SoftwareType,DateUTC
2013-11-06 00:02:00,35.0,34.0,-100.00,North,4,0.0,1.0,95,0.00,,,0.20,0.000000,,2013-11-06 08:02:00,
2013-11-06 00:42:00,36.0,35.0,-100.00,West,276,0.0,2.0,95,0.00,,,0.19,0.000000,,2013-11-06 08:42:00,
2013-11-06 00:52:00,36.0,35.0,-100.00,West,276,0.0,2.0,95,0.00,,,0.19,0.000000,,2013-11-06 08:52:00,
2013-11-06 01:02:00,36.0,35.0,-100.00,West,276,0.0,2.0,95,0.00,,,0.19,0.000000,,2013-11-06 09:02:00,
2013-11-06 01:43:00,36.0,35.0,-100.00,South,174,1.0,2.0,95,0.00,,,0.19,0.000000,,2013-11-06 09:43:00,
2013-11-06 01:53:00,36.0,35.0,-100.00,South,174,1.0,2.0,95,0.00,,,0.19,0.000000,,2013-11-06 09:53:00,
2013-11-06 02:03:00,36.0,35.0,-100.00,South,174,1.0,2.0,95,0.00,,,0.19,0.000000,,2013-11-06 10:03:00,
2013-11-06 02:42:00,34.0,33.0,-100.00,SSW,208,1.0,2.0,95,0.00,,,0.18,0.000000,,2013-11-06 10:42:00,
2013-11-06 02:53:00,34.0,33.0,-100.00,SSW,208,1.0,2.0,95,0.00,,,0.18,0.000000,,2013-11-06 10:53:00,
2013-11-06 03:02:00,34.0,33.0,-100.00,SSW,208,1.0,2.0,95,0.00,,,0.18,0.000000,,2013-11-06 11:02:00,
2013-11-06 03:42:00,34.0,33.0,-100.00,WSW,240,0.0,3.0,95,0.00,,,0.17,0.000000,,2013-11-06 11:42:00,
2013-11-06 03:52:00,34.0,33.0,-100.00,WSW,240,0.0,3.0,95,0.00,,,0.17,0.000000,,2013-11-06 11:52:00,
2013-11-06 04:02:00,34.0,33.0,-100.00,WSW,240,0.0,3.0,95,0.00,,,0.17,0.000000,,2013-11-06 12:02:00,
2013-11-06 04:42:00,34.0,33.0,-100.00,ENE,67,1.0,2.0,95,0.00,,,0.13,0.000000,,2013-11-06 12:42:00,
2013-11-06 04:52:00,34.0,33.0,-100.00,ENE,67,1.0,2.0,95,0.00,,,0.13,0.000000,,2013-11-06 12:52:00,
2013-11-06 05:01:00,34.0,33.0,-100.00,ENE,67,1.0,2.0,95,0.00,,,0.13,0.000000,,2013-11-06 13:01:00,
2013-11-06 05:42:00,35.0,34.0,-100.00,NE,45,0.0,2.0,95,0.00,,,0.09,0.000000,,2013-11-06 13:42:00,
2013-11-06 05:52:00,35.0,34.0,-100.00,NE,45,0.0,2.0,95,0.00,,,0.09,0.000000,,2013-11-06 13:52:00,
2013-11-06 06:02:00,35.0,34.0,-100.00,NE,45,0.0,2.0,95,0.00,,,0.09,0.000000,,2013-11-06 14:02:00,
2013-11-06 06:42:00,35.0,34.0,-100.00,NE,39,1.0,2.0,95,0.00,,,0.08,0.000000,,2013-11-06 14:42:00,
2013-11-06 06:52:00,35.0,34.0,-100.00,NE,39,1.0,2.0,95,0.00,,,0.08,0.000000,,2013-11-06 14:52:00,
2013-11-06 07:01:00,35.0,34.0,-100.00,NE,39,1.0,2.0,95,0.00,,,0.08,0.000000,,2013-11-06 15:01:00,
2013-11-06 07:43:00,34.0,33.0,-100.00,East,82,1.0,3.0,95,0.00,,,0.07,0.000000,,2013-11-06 15:43:00,
2013-11-06 07:53:00,34.0,33.0,-100.00,East,82,1.0,3.0,95,0.00,,,0.07,0.000000,,2013-11-06 15:53:00,
2013-11-06 08:03:00,34.0,33.0,-100.00,East,82,1.0,3.0,95,0.00,,,0.07,0.000000,,2013-11-06 16:03:00,
2013-11-06 08:43:00,35.0,34.0,-100.00,NNE,23,1.0,5.0,95,0.00,,,0.06,34.000000,,2013-11-06 16:43:00,
2013-11-06 08:53:00,35.0,34.0,-100.00,NNE,23,1.0,5.0,95,0.00,,,0.06,34.000000,,2013-11-06 16:53:00,
2013-11-06 09:02:00,35.0,34.0,-100.00,NNE,23,1.0,5.0,95,0.00,,,0.06,34.000000,,2013-11-06 17:02:00,
2013-11-06 09:43:00,40.0,39.0,-100.00,WSW,246,1.0,4.0,95,0.00,,,0.04,104.000000,,2013-11-06 17:43:00,
2013-11-06 09:52:00,40.0,39.0,-100.00,WSW,246,1.0,4.0,95,0.00,,,0.04,104.000000,,2013-11-06 17:52:00,
2013-11-06 10:01:00,40.0,39.0,-100.00,WSW,246,1.0,4.0,95,0.00,,,0.04,104.000000,,2013-11-06 18:01:00,
2013-11-06 10:42:00,43.0,42.0,-100.00,NNW,339,1.0,5.0,95,0.00,,,0.02,153.000000,,2013-11-06 18:42:00,
2013-11-06 10:52:00,43.0,42.0,-100.00,NNW,339,1.0,5.0,95,0.00,,,0.02,153.000000,,2013-11-06 18:52:00,
2013-11-06 11:01:00,43.0,42.0,-100.00,NNW,339,1.0,5.0,95,0.00,,,0.02,153.000000,,2013-11-06 19:01:00,
2013-11-06 11:42:00,47.0,42.0,-100.00,West,265,1.0,4.0,83,0.00,,,0.02,247.000000,,2013-11-06 19:42:00,
2013-11-06 11:52:00,47.0,42.0,-100.00,West,265,1.0,4.0,83,0.00,,,0.02,247.000000,,2013-11-06 19:52:00,
2013-11-06 12:01:00,47.0,42.0,-100.00,West,265,1.0,4.0,83,0.00,,,0.02,247.000000,,2013-11-06 20:01:00,
2013-11-06 12:42:00,50.0,43.0,-100.00,East,80,1.0,3.0,76,0.00,,,0.02,224.000000,,2013-11-06 20:42:00,
2013-11-06 12:52:00,50.0,43.0,-100.00,East,80,1.0,3.0,76,0.00,,,0.02,224.000000,,2013-11-06 20:52:00,
2013-11-06 13:02:00,50.0,43.0,-100.00,East,80,1.0,3.0,76,0.00,,,0.02,224.000000,,2013-11-06 21:02:00,
2013-11-06 13:44:00,51.0,44.0,-100.00,NE,46,1.0,5.0,78,0.00,,,0.02,264.000000,,2013-11-06 21:44:00,
2013-11-06 13:54:00,51.0,44.0,-100.00,NE,46,1.0,5.0,78,0.00,,,0.02,264.000000,,2013-11-06 21:54:00,
2013-11-06 14:04:00,51.0,44.0,-100.00,NE,46,1.0,5.0,78,0.00,,,0.02,264.000000,,2013-11-06 22:04:00,
2013-11-06 14:43:00,50.0,43.0,-100.00,NNW,342,1.0,8.0,76,0.00,,,0.02,197.000000,,2013-11-06 22:43:00,
2013-11-06 14:53:00,50.0,43.0,-100.00,NNW,342,1.0,8.0,76,0.00,,,0.02,197.000000,,2013-11-06 22:53:00,
2013-11-06 15:02:00,50.0,43.0,-100.00,NNW,342,1.0,8.0,76,0.00,,,0.02,197.000000,,2013-11-06 23:02:00,
2013-11-06 15:42:00,47.0,43.0,-100.00,NNW,334,0.0,7.0,85,0.00,,,0.01,96.000000,,2013-11-06 23:42:00,
2013-11-06 15:53:00,47.0,43.0,-100.00,NNW,334,0.0,7.0,85,0.00,,,0.01,96.000000,,2013-11-06 23:53:00,
2013-11-06 16:02:00,47.0,43.0,-100.00,NNW,334,0.0,7.0,85,0.00,,,0.01,96.000000,,2013-11-07 00:02:00,
2013-11-06 16:42:00,47.0,44.0,-100.00,North,5,0.0,2.0,89,0.00,,,0.00,51.000000,,2013-11-07 00:42:00,
2013-11-06 16:52:00,47.0,44.0,-100.00,North,5,0.0,2.0,89,0.00,,,0.00,51.000000,,2013-11-07 00:52:00,
2013-11-06 17:01:00,47.0,44.0,-100.00,North,5,0.0,2.0,89,0.00,,,0.00,51.000000,,2013-11-07 01:01:00,
2013-11-06 17:42:00,42.0,40.0,-100.00,WSW,240,1.0,4.0,94,0.03,,,0.03,3.000000,,2013-11-07 01:42:00,
2013-11-06 17:52:00,42.0,40.0,-100.00,WSW,240,1.0,4.0,94,0.03,,,0.03,3.000000,,2013-11-07 01:52:00,
2013-11-06 18:01:00,42.0,40.0,-100.00,WSW,240,1.0,4.0,94,0.03,,,0.03,3.000000,,2013-11-07 02:01:00,
2013-11-06 18:53:00,43.0,42.0,-100.00,NE,56,1.0,6.0,95,0.00,,,0.03,0.000000,,2013-11-07 02:53:00,
2013-11-06 19:02:00,43.0,42.0,-100.00,NE,56,1.0,6.0,95,0.00,,,0.03,0.000000,,2013-11-07 03:02:00,
2013-11-06 19:44:00,42.0,41.0,-100.00,South,174,1.0,5.0,95,0.00,,,0.03,0.000000,,2013-11-07 03:44:00,
2013-11-06 19:55:00,42.0,41.0,-100.00,South,174,1.0,5.0,95,0.00,,,0.03,0.000000,,2013-11-07 03:55:00,
2013-11-06 20:04:00,42.0,41.0,-100.00,South,174,1.0,5.0,95,0.00,,,0.03,0.000000,,2013-11-07 04:04:00,
2013-11-06 20:43:00,40.0,39.0,-100.00,NNE,26,1.0,5.0,95,0.03,,,0.06,0.000000,,2013-11-07 04:43:00,
2013-11-06 20:53:00,40.0,39.0,-100.00,NNE,26,1.0,5.0,95,0.03,,,0.06,0.000000,,2013-11-07 04:53:00,
2013-11-06 21:03:00,40.0,39.0,-100.00,NNE,26,1.0,5.0,95,0.03,,,0.06,0.000000,,2013-11-07 05:03:00,
2013-11-06 21:44:00,40.0,39.0,-100.00,NNE,25,1.0,4.0,95,0.05,,,0.11,0.000000,,2013-11-07 05:44:00,
2013-11-06 21:54:00,40.0,39.0,-100.00,NNE,25,1.0,4.0,95,0.05,,,0.11,0.000000,,2013-11-07 05:54:00,
2013-11-06 22:03:00,40.0,39.0,-100.00,NNE,25,1.0,4.0,95,0.05,,,0.11,0.000000,,2013-11-07 06:03:00,
2013-11-06 22:42:00,41.0,40.0,-100.00,NNE,13,1.0,4.0,95,0.06,,,0.17,0.000000,,2013-11-07 06:42:00,
2013-11-06 22:52:00,41.0,40.0,-100.00,NNE,13,1.0,4.0,95,0.06,,,0.17,0.000000,,2013-11-07 06:52:00,
2013-11-06 23:02:00,41.0,40.0,-100.00,NNE,13,1.0,4.0,95,0.06,,,0.17,0.000000,,2013-11-07 07:02:00,
2013-11-06 23:42:00,41.0,40.0,-100.00,NNW,336,1.0,3.0,95,0.03,,,0.20,0.000000,,2013-11-07 07:42:00,
2013-11-06 23:52:00,41.0,40.0,-100.00,NNW,336,1.0,3.0,95,0.03,,,0.20,0.000000,,2013-11-07 07:52:00,